Time;durP1;ratioP1;P1;durP2;ratioP2;P2;SDS_P1;SDS_P2;PMS_P1;PMS_P2;Temp;Humidity;BMP_temperature;BMP_pressure;BME280_temperature;BME280_humidity;BME280_pressure;Samples;Min_cycle;Max_cycle;Signal;HPM_P1;HPM_P2
2020/12/03 00:00:28;;;;;;;61.03;31.50;;;;;;;-0.14;78.53;100452.50;5117824;28;20019;-73
2020/12/03 00:02:55;;;;;;;58.05;28.98;;;;;;;-0.12;78.25;100455.75;5117762;27;20027;-72
2020/12/03 00:05:20;;;;;;;63.95;30.48;;;;;;;-0.09;78.21;100450.38;5118325;28;20023;-73
2020/12/03 00:07:46;;;;;;;59.42;28.98;;;;;;;-0.11;78.44;100435.25;5099688;28;20342;-72
2020/12/03 00:10:12;;;;;;;57.72;30.02;;;;;;;-0.13;78.59;100440.31;5117759;28;20035;-73
2020/12/03 00:12:37;;;;;;;58.65;28.27;;;;;;;-0.13;78.53;100448.59;5117595;28;20042;-72
2020/12/03 00:15:03;;;;;;;59.10;30.13;;;;;;;-0.15;78.54;100445.34;5117553;28;20442;-72
2020/12/03 00:17:28;;;;;;;53.60;29.08;;;;;;;-0.12;78.73;100450.22;5117598;28;20055;-71
2020/12/03 00:19:53;;;;;;;58.95;30.88;;;;;;;-0.12;77.98;100452.97;5117643;28;20357;-71
2020/12/03 00:22:19;;;;;;;55.65;28.42;;;;;;;-0.14;78.33;100453.31;5117392;28;20084;-72
2020/12/03 00:24:44;;;;;;;58.60;30.10;;;;;;;-0.11;78.40;100452.66;5118049;28;20355;-72
2020/12/03 00:27:10;;;;;;;53.90;28.58;;;;;;;-0.08;78.24;100454.75;5117556;28;20028;-72
2020/12/03 00:29:37;;;;;;;57.50;29.52;;;;;;;-0.07;77.63;100448.09;5117154;28;20027;-71
2020/12/03 00:32:03;;;;;;;55.85;29.65;;;;;;;-0.09;78.12;100441.25;5117263;28;20051;-73
2020/12/03 00:34:28;;;;;;;56.25;28.42;;;;;;;-0.10;78.23;100439.66;5117337;28;20047;-73
2020/12/03 00:36:54;;;;;;;55.78;28.58;;;;;;;-0.11;78.49;100440.78;5099378;28;20391;-73
2020/12/03 00:39:20;;;;;;;55.45;27.85;;;;;;;-0.11;78.45;100438.84;5117125;28;20027;-72
2020/12/03 00:41:51;;;;;;;55.25;28.52;;;;;;;-0.12;78.35;100430.88;5117243;28;20465;-71
2020/12/03 00:44:18;;;;;;;60.58;29.38;;;;;;;-0.11;78.09;100424.22;5116987;28;20034;-73
2020/12/03 00:46:43;;;;;;;60.60;29.85;;;;;;;-0.12;78.73;100428.13;5098860;28;20028;-71
2020/12/03 00:49:09;;;;;;;61.47;30.48;;;;;;;-0.12;78.80;100417.06;5117154;28;20026;-72
2020/12/03 00:51:34;;;;;;;58.00;30.85;;;;;;;-0.14;78.78;100413.81;5117180;28;20315;-71
2020/12/03 00:53:59;;;;;;;53.58;30.33;;;;;;;-0.15;78.99;100423.25;5116438;28;20026;-71
2020/12/03 00:56:25;;;;;;;61.47;30.98;;;;;;;-0.14;78.95;100419.34;5116401;28;20028;-71
2020/12/03 00:58:50;;;;;;;58.58;29.65;;;;;;;-0.12;78.74;100425.34;5098764;28;20047;-72
2020/12/03 01:01:17;;;;;;;55.35;29.75;;;;;;;-0.13;78.47;100426.50;5116392;28;20035;-71
2020/12/03 01:03:43;;;;;;;59.85;30.13;;;;;;;-0.13;79.00;100420.97;5116815;28;20016;-71
2020/12/03 01:06:09;;;;;;;57.50;30.08;;;;;;;-0.08;78.72;100409.72;5116745;28;20049;-71
2020/12/03 01:08:35;;;;;;;58.92;31.10;;;;;;;-0.07;78.59;100416.88;5116651;28;21362;-71
2020/12/03 01:11:00;;;;;;;57.33;29.85;;;;;;;-0.04;78.84;100400.44;5115997;28;20026;-72
2020/12/03 01:13:26;;;;;;;66.05;30.35;;;;;;;-0.05;78.86;100390.53;5116750;28;20020;-71
2020/12/03 01:15:51;;;;;;;63.75;31.33;;;;;;;-0.04;78.54;100397.69;5116339;28;20021;-72
2020/12/03 01:18:17;;;;;;;60.03;30.50;;;;;;;-0.05;78.77;100395.25;5098356;28;20330;-72
2020/12/03 01:20:42;;;;;;;62.05;31.33;;;;;;;-0.07;79.03;100387.28;5116519;27;20022;-72
2020/12/03 01:23:08;;;;;;;59.72;32.92;;;;;;;-0.07;78.62;100387.28;5116530;28;20062;-71
2020/12/03 01:25:35;;;;;;;60.13;30.77;;;;;;;-0.05;78.82;100390.53;5116413;28;20019;-69
2020/12/03 01:28:00;;;;;;;56.65;29.48;;;;;;;-0.07;78.42;100403.06;5097894;28;20023;-71
2020/12/03 01:30:26;;;;;;;55.45;29.45;;;;;;;-0.06;78.85;100399.16;5116113;28;20024;-71
2020/12/03 01:32:51;;;;;;;56.15;29.60;;;;;;;-0.03;79.31;100393.78;5116060;28;20020;-71
2020/12/03 01:35:18;;;;;;;58.10;29.50;;;;;;;0.02;78.21;100390.03;5116077;28;20047;-71
2020/12/03 01:37:44;;;;;;;55.53;29.58;;;;;;;0.04;78.63;100382.22;5116206;28;20031;-71
2020/12/03 01:40:13;;;;;;;56.53;28.35;;;;;;;0.03;78.80;100375.06;5116086;28;20012;-71
2020/12/03 01:42:41;;;;;;;55.78;29.45;;;;;;;0.03;79.05;100352.97;5115851;28;20107;-71
2020/12/03 01:45:44;;;;;;;55.80;27.85;;;;;;;0.05;78.72;100349.88;5097574;28;20049;-72
2020/12/03 01:48:27;;;;;;;53.75;27.95;;;;;;;0.07;79.27;100344.81;5116207;28;20284;-71
2020/12/03 01:50:53;;;;;;;57.67;28.73;;;;;;;0.08;78.89;100346.44;5114773;28;20024;-71
2020/12/03 01:53:20;;;;;;;55.15;27.80;;;;;;;0.06;78.90;100341.25;5097752;28;20027;-72
2020/12/03 01:55:47;;;;;;;55.35;29.08;;;;;;;0.07;79.41;100347.59;5113503;28;20103;-72
2020/12/03 01:58:25;;;;;;;55.42;29.70;;;;;;;0.09;79.01;100339.78;5115602;28;20375;-71
2020/12/03 02:00:51;;;;;;;51.08;26.42;;;;;;;0.11;78.50;100332.75;5115733;28;20020;-72
2020/12/03 02:03:17;;;;;;;46.03;26.23;;;;;;;0.13;78.28;100319.41;5115465;28;20026;-72
2020/12/03 02:05:42;;;;;;;51.47;26.17;;;;;;;0.16;78.44;100301.34;5116008;28;20314;-71
2020/12/03 02:08:07;;;;;;;53.50;26.98;;;;;;;0.22;78.15;100300.00;5114764;28;20050;-72
2020/12/03 02:10:33;;;;;;;47.63;26.17;;;;;;;0.21;78.13;100298.38;5115270;28;20124;-71
2020/12/03 02:12:58;;;;;;;48.00;26.25;;;;;;;0.22;78.16;100298.03;5115183;28;20072;-71
2020/12/03 02:15:23;;;;;;;48.47;26.25;;;;;;;0.21;78.33;100281.78;5097563;28;20031;-71
2020/12/03 02:17:49;;;;;;;51.92;26.38;;;;;;;0.24;78.76;100298.53;5115461;28;20026;-71
2020/12/03 02:20:20;;;;;;;49.30;26.00;;;;;;;0.31;77.30;100298.00;5097300;28;20106;-71
2020/12/03 02:22:47;;;;;;;50.10;27.08;;;;;;;0.29;77.81;100303.88;5115433;28;20030;-71
2020/12/03 02:25:13;;;;;;;49.45;25.98;;;;;;;0.25;78.26;100297.38;5097472;28;20030;-71
2020/12/03 02:27:41;;;;;;;54.88;28.85;;;;;;;0.24;78.22;100309.56;5114460;28;20015;-71
2020/12/03 02:30:08;;;;;;;52.22;27.35;;;;;;;0.26;78.75;100296.22;5115228;28;20015;-70
2020/12/03 02:32:34;;;;;;;46.88;25.58;;;;;;;0.22;78.52;100306.34;5115141;28;20042;-70
2020/12/03 02:34:59;;;;;;;50.28;27.65;;;;;;;0.22;78.96;100302.75;5114992;28;20311;-71
2020/12/03 02:37:26;;;;;;;48.15;25.60;;;;;;;0.25;78.12;100302.09;5095647;28;20024;-70
2020/12/03 02:39:53;;;;;;;56.20;27.33;;;;;;;0.23;78.15;100291.38;5115304;28;20027;-71
2020/12/03 02:42:20;;;;;;;50.85;27.33;;;;;;;0.25;78.24;100285.50;5112121;28;20423;-70
2020/12/03 02:44:47;;;;;;;46.78;26.77;;;;;;;0.21;78.35;100295.63;5115435;28;20302;-71
2020/12/03 02:47:16;;;;;;;53.38;27.20;;;;;;;0.22;78.19;100288.94;5115003;28;20053;-71
2020/12/03 02:49:41;;;;;;;53.08;27.45;;;;;;;0.20;78.29;100297.56;5115004;28;20459;-70
2020/12/03 02:52:12;;;;;;;53.35;27.30;;;;;;;0.21;78.31;100279.84;5115045;28;20019;-66
2020/12/03 02:54:39;;;;;;;54.40;28.65;;;;;;;0.23;77.98;100279.50;5115122;28;20424;-65
2020/12/03 02:57:04;;;;;;;52.15;27.02;;;;;;;0.24;77.91;100268.09;5114484;28;20023;-65
2020/12/03 02:59:29;;;;;;;45.92;25.27;;;;;;;0.25;77.70;100268.91;5097361;28;20022;-65
2020/12/03 03:01:55;;;;;;;52.38;26.92;;;;;;;0.26;77.41;100259.47;5114938;28;20043;-66
2020/12/03 03:04:20;;;;;;;51.67;27.30;;;;;;;0.24;77.15;100265.34;5096698;28;20026;-65
2020/12/03 03:06:45;;;;;;;47.40;26.33;;;;;;;0.26;77.05;100257.53;5115190;28;20019;-70
2020/12/03 03:09:11;;;;;;;47.42;26.70;;;;;;;0.26;77.05;100263.06;5114587;28;20051;-70
2020/12/03 03:11:36;;;;;;;48.80;25.67;;;;;;;0.29;76.08;100265.16;5114657;28;20020;-71
2020/12/03 03:14:04;;;;;;;49.72;26.40;;;;;;;0.29;76.20;100251.34;5114642;28;20310;-70
2020/12/03 03:16:30;;;;;;;48.03;25.17;;;;;;;0.30;76.18;100244.66;5097060;28;20058;-71
2020/12/03 03:18:55;;;;;;;51.22;25.95;;;;;;;0.30;76.19;100233.63;5115508;28;20027;-71
2020/12/03 03:21:22;;;;;;;43.45;25.70;;;;;;;0.28;76.19;100237.84;5118708;28;20399;-72
2020/12/03 03:23:47;;;;;;;49.67;27.73;;;;;;;0.27;76.14;100237.06;5118855;28;20019;-71
2020/12/03 03:26:13;;;;;;;46.00;25.85;;;;;;;0.28;76.35;100246.97;5118224;28;20024;-71
2020/12/03 03:28:39;;;;;;;46.75;24.88;;;;;;;0.28;76.01;100237.84;5118629;28;20030;-71
2020/12/03 03:31:04;;;;;;;46.08;25.50;;;;;;;0.27;75.67;100226.00;5118466;28;20016;-71
2020/12/03 03:33:29;;;;;;;49.38;25.50;;;;;;;0.29;75.49;100234.75;5118795;28;20020;-71
2020/12/03 03:35:55;;;;;;;49.92;26.33;;;;;;;0.28;75.19;100246.16;5100396;28;20027;-71
2020/12/03 03:38:20;;;;;;;54.95;26.20;;;;;;;0.27;75.12;100250.88;5118220;28;20011;-71
2020/12/03 03:40:45;;;;;;;47.85;25.40;;;;;;;0.25;75.54;100250.38;5118198;28;20099;-71
2020/12/03 03:43:11;;;;;;;53.63;27.00;;;;;;;0.29;75.26;100242.25;5118238;28;20026;-72
2020/12/03 03:45:36;;;;;;;49.13;25.60;;;;;;;0.30;75.22;100233.63;5100188;28;20034;-73
2020/12/03 03:48:03;;;;;;;48.35;24.58;;;;;;;0.28;75.29;100235.09;5118260;28;20038;-71
2020/12/03 03:50:28;;;;;;;53.35;27.83;;;;;;;0.29;75.48;100229.22;5100210;28;20352;-71
2020/12/03 03:52:54;;;;;;;48.25;25.77;;;;;;;0.26;75.51;100234.59;5100112;28;20098;-71
2020/12/03 03:55:19;;;;;;;54.75;26.33;;;;;;;0.18;75.96;100227.19;5099649;28;20023;-71
2020/12/03 03:57:45;;;;;;;48.20;27.90;;;;;;;0.17;75.75;100225.56;5118228;28;20019;-71
2020/12/03 04:00:10;;;;;;;55.85;27.50;;;;;;;0.12;75.82;100231.31;5117694;28;20407;-72
2020/12/03 04:02:37;;;;;;;58.45;29.70;;;;;;;0.12;76.05;100239.59;5118063;28;20284;-71
2020/12/03 04:05:03;;;;;;;55.58;28.05;;;;;;;0.09;76.06;100246.59;5100266;28;20012;-71
2020/12/03 04:07:29;;;;;;;53.30;27.02;;;;;;;0.09;76.10;100229.22;5099868;28;20047;-72
2020/12/03 04:09:54;;;;;;;66.15;28.85;;;;;;;0.05;76.07;100229.09;5117465;28;20116;-71
2020/12/03 04:12:20;;;;;;;56.38;27.40;;;;;;;-0.01;76.45;100213.81;5117693;28;20054;-71
2020/12/03 04:14:45;;;;;;;49.80;26.75;;;;;;;-0.06;76.88;100200.22;5117897;28;20027;-71
2020/12/03 04:17:10;;;;;;;51.70;27.92;;;;;;;-0.09;77.01;100204.47;5120305;27;20407;-71
2020/12/03 04:19:36;;;;;;;56.53;29.45;;;;;;;-0.10;77.32;100188.22;5099782;28;20556;-71
2020/12/03 04:22:01;;;;;;;60.35;30.15;;;;;;;-0.07;77.11;100195.84;5099386;28;20019;-70
2020/12/03 04:24:26;;;;;;;54.75;28.58;;;;;;;-0.12;76.87;100196.03;5099418;28;20023;-71
2020/12/03 04:26:52;;;;;;;57.72;30.67;;;;;;;-0.17;77.23;100196.25;5117624;28;20024;-71
2020/12/03 04:29:17;;;;;;;53.45;28.65;;;;;;;-0.25;77.45;100191.59;5117514;28;20035;-71
2020/12/03 04:31:44;;;;;;;59.38;30.58;;;;;;;-0.24;77.70;100193.22;5116412;28;20032;-70
2020/12/03 04:34:11;;;;;;;56.80;30.70;;;;;;;-0.24;77.90;100187.69;5099276;28;20028;-71
2020/12/03 04:36:36;;;;;;;55.70;29.25;;;;;;;-0.24;77.07;100177.44;5117477;28;20031;-70
2020/12/03 04:39:03;;;;;;;57.35;30.35;;;;;;;-0.23;76.94;100183.78;5116924;28;20015;-71
2020/12/03 04:41:29;;;;;;;53.10;27.25;;;;;;;-0.16;77.11;100190.38;5117208;28;20007;-70
2020/12/03 04:44:14;;;;;;;51.47;28.65;;;;;;;-0.12;76.75;100185.00;5117323;28;20030;-71
2020/12/03 04:46:50;;;;;;;53.45;29.15;;;;;;;-0.14;76.57;100181.75;5116957;28;20112;-71
2020/12/03 04:49:33;;;;;;;57.33;29.98;;;;;;;-0.18;76.69;100187.16;5117166;27;20487;-69
2020/12/03 04:52:21;;;;;;;58.20;27.77;;;;;;;-0.22;76.54;100183.44;5117109;28;20153;-71
2020/12/03 04:55:08;;;;;;;53.58;28.17;;;;;;;-0.25;76.92;100184.13;5116836;28;20027;-71
2020/12/03 04:57:46;;;;;;;55.45;28.75;;;;;;;-0.25;76.72;100184.13;5096684;28;20079;-70
2020/12/03 05:00:28;;;;;;;55.30;26.95;;;;;;;-0.27;76.45;100171.75;5098591;28;20126;-70
2020/12/03 05:03:12;;;;;;;50.05;26.77;;;;;;;-0.24;76.30;100162.84;5116911;28;20020;-70
2020/12/03 05:06:21;;;;;;;48.30;26.80;;;;;;;-0.28;76.74;100164.63;5116796;28;20046;-68
2020/12/03 05:09:05;;;;;;;55.17;27.92;;;;;;;-0.31;76.68;100157.81;5098413;28;20051;-72
2020/12/03 05:11:36;;;;;;;55.45;28.85;;;;;;;-0.34;76.56;100145.50;5114688;28;20347;-69
2020/12/03 05:14:25;;;;;;;57.45;27.67;;;;;;;-0.29;76.35;100149.19;5114972;28;20027;-75
2020/12/03 05:17:16;;;;;;;55.40;28.08;;;;;;;-0.31;76.58;100144.81;5098632;28;20028;-66
2020/12/03 05:19:49;;;;;;;48.77;26.87;;;;;;;-0.31;76.31;100139.28;5115915;28;20034;-69
2020/12/03 05:22:22;;;;;;;53.28;29.05;;;;;;;-0.33;76.28;100133.28;5116208;28;20062;-70
2020/12/03 05:24:47;;;;;;;56.80;30.35;;;;;;;-0.33;76.49;100140.78;5116501;28;20093;-69
2020/12/03 05:27:25;;;;;;;55.67;28.02;;;;;;;-0.36;76.35;100133.16;5115357;28;20410;-70
2020/12/03 05:29:51;;;;;;;63.22;31.10;;;;;;;-0.37;76.59;100145.34;5115980;28;20038;-70
2020/12/03 05:32:17;;;;;;;48.17;28.23;;;;;;;-0.39;76.37;100129.13;5115771;28;20345;-72
2020/12/03 05:34:43;;;;;;;57.35;30.13;;;;;;;-0.44;76.24;100123.81;5115695;28;20035;-71
2020/12/03 05:37:14;;;;;;;56.40;28.50;;;;;;;-0.41;76.79;100123.13;5097268;28;20068;-72
2020/12/03 05:40:10;;;;;;;55.58;28.58;;;;;;;-0.42;76.47;100118.75;5115845;27;20403;-71
2020/12/03 05:42:37;;;;;;;54.20;27.33;;;;;;;-0.45;76.32;100111.16;5093753;28;20055;-70
2020/12/03 05:45:21;;;;;;;62.58;30.65;;;;;;;-0.45;76.10;100122.19;5115331;28;20054;-71
2020/12/03 05:47:50;;;;;;;51.63;29.45;;;;;;;-0.48;76.45;100120.09;5095512;28;20310;-70
2020/12/03 05:50:31;;;;;;;56.85;28.98;;;;;;;-0.50;76.86;100113.31;5114437;28;20024;-70
2020/12/03 05:53:22;;;;;;;54.45;27.88;;;;;;;-0.48;76.00;100109.06;5097620;28;20046;-69
2020/12/03 05:55:49;;;;;;;36.40;19.83;;;;;;;-0.45;76.32;100113.09;5085778;28;20043;-66
2020/12/03 05:58:29;;;;;;;51.05;28.67;;;;;;;-0.39;75.76;100111.75;5115026;28;20020;-66
2020/12/03 06:01:13;;;;;;;52.17;25.55;;;;;;;-0.43;75.68;100100.56;5113911;27;20008;-66
2020/12/03 06:03:58;;;;;;;51.33;27.90;;;;;;;-0.43;75.70;100119.09;5115355;28;20414;-66
2020/12/03 06:06:24;;;;;;;49.95;26.02;;;;;;;-0.41;75.42;100116.81;5096892;28;20023;-66
2020/12/03 06:09:05;;;;;;;52.65;27.27;;;;;;;-0.39;75.63;100118.06;5097419;28;20063;-67
2020/12/03 06:11:33;;;;;;;54.20;26.95;;;;;;;-0.32;75.55;100115.59;5115700;27;20034;-68
2020/12/03 06:14:50;;;;;;;51.58;26.70;;;;;;;-0.33;74.89;100115.91;5115640;28;20051;-65
2020/12/03 06:17:57;;;;;;;56.83;27.55;;;;;;;-0.32;75.18;100107.28;5059561;28;20027;-63
2020/12/03 06:20:28;;;;;;;53.97;26.92;;;;;;;-0.30;75.16;100112.47;5115094;28;20377;-64
2020/12/03 06:23:18;;;;;;;40.50;20.23;;;;;;;-0.33;75.60;100108.44;5115634;28;20023;-63
2020/12/03 06:26:01;;;;;;;66.70;29.90;;;;;;;-0.29;75.17;100096.72;5115116;28;20521;-64
2020/12/03 06:28:36;;;;;;;60.28;27.90;;;;;;;-0.26;75.62;100085.84;5115285;28;20019;-63
2020/12/03 06:31:25;;;;;;;61.60;31.70;;;;;;;-0.28;74.89;100084.53;5115268;28;20070;-65
2020/12/03 06:34:28;;;;;;;53.33;28.00;;;;;;;-0.26;74.46;100073.97;5097117;28;20376;-65
2020/12/03 06:36:57;;;;;;;56.33;25.95;;;;;;;-0.27;75.38;100069.56;5115308;28;20322;-64
2020/12/03 06:39:54;;;;;;;46.30;26.52;;;;;;;-0.28;75.23;100068.75;5117870;28;20411;-66
2020/12/03 06:42:25;;;;;;;52.15;27.75;;;;;;;-0.28;74.83;100087.28;5114196;28;20046;-64
2020/12/03 06:45:09;;;;;;;68.10;29.67;;;;;;;-0.22;74.34;100108.88;5115282;28;20012;-64
2020/12/03 06:48:05;;;;;;;49.95;25.77;;;;;;;-0.14;73.28;100116.25;5114700;28;20019;-67
2020/12/03 06:50:48;;;;;;;60.53;27.67;;;;;;;-0.13;73.68;100094.97;5112769;28;20162;-65
2020/12/03 06:53:26;;;;;;;56.67;26.38;;;;;;;-0.10;73.27;100105.34;5115209;28;20088;-65
2020/12/03 06:56:39;;;;;;;50.92;22.88;;;;;;;-0.04;73.30;100092.94;5116584;28;20043;-68
2020/12/03 06:59:14;;;;;;;55.47;27.17;;;;;;;-0.09;73.44;100102.25;5041773;28;20077;-68
2020/12/03 07:01:45;;;;;;;51.85;28.13;;;;;;;-0.09;73.36;100106.97;5119328;27;20016;-68
2020/12/03 07:04:32;;;;;;;63.42;31.00;;;;;;;-0.11;73.57;100106.50;5117778;27;20322;-68
2020/12/03 07:07:09;;;;;;;62.53;31.92;;;;;;;-0.16;73.53;100099.22;5117698;28;20024;-68
2020/12/03 07:10:03;;;;;;;50.50;26.48;;;;;;;-0.10;73.75;100106.16;5118768;28;20350;-67
2020/12/03 07:12:42;;;;;;;54.60;28.50;;;;;;;-0.09;73.99;100095.91;5105635;27;20039;-66
2020/12/03 07:15:29;;;;;;;49.55;25.42;;;;;;;-0.03;73.67;100111.13;5118842;28;20084;-68
2020/12/03 07:18:31;;;;;;;50.88;26.08;;;;;;;0.00;73.61;100099.41;5117008;28;20072;-67
2020/12/03 07:21:35;;;;;;;50.17;24.90;;;;;;;-0.01;73.56;100097.78;5118844;28;20019;-68
2020/12/03 07:24:08;;;;;;;48.25;24.15;;;;;;;0.05;73.74;100092.88;5100477;28;20038;-66
2020/12/03 07:26:43;;;;;;;44.28;22.30;;;;;;;0.11;73.29;100092.31;5118736;28;20065;-67
2020/12/03 07:29:19;;;;;;;46.92;23.98;;;;;;;0.16;73.34;100097.63;5100523;28;20030;-67
2020/12/03 07:31:48;;;;;;;46.60;22.73;;;;;;;0.17;72.56;100107.53;5099862;28;20051;-67
2020/12/03 07:34:39;;;;;;;43.70;24.20;;;;;;;0.19;72.87;100104.44;5118678;28;20031;-66
2020/12/03 07:37:30;;;;;;;54.53;28.10;;;;;;;0.21;72.77;100100.16;5117066;27;20030;-67
2020/12/03 07:39:56;;;;;;;54.05;23.77;;;;;;;0.23;72.84;100103.41;5115800;27;20027;-68
2020/12/03 07:42:22;;;;;;;49.75;24.48;;;;;;;0.29;73.00;100088.25;5117562;28;20027;-66
2020/12/03 07:44:53;;;;;;;51.72;25.63;;;;;;;0.34;72.79;100100.22;5101344;28;20031;-68
2020/12/03 07:47:38;;;;;;;48.07;23.67;;;;;;;0.40;72.47;100096.09;5100031;28;20114;-67
2020/12/03 07:50:06;;;;;;;47.83;23.80;;;;;;;0.42;72.70;100099.31;5102374;28;20549;-67
2020/12/03 07:52:36;;;;;;;39.08;21.92;;;;;;;0.45;72.37;100085.63;5120643;27;20161;-67
2020/12/03 07:55:20;;;;;;;49.40;23.80;;;;;;;0.48;72.48;100089.66;5099421;28;20028;-67
2020/12/03 07:57:48;;;;;;;44.63;23.73;;;;;;;0.52;72.13;100087.81;5117487;28;20531;-64
2020/12/03 08:00:34;;;;;;;48.47;24.45;;;;;;;0.57;72.11;100087.63;5117646;28;20027;-69
2020/12/03 08:03:00;;;;;;;46.92;24.20;;;;;;;0.57;72.22;100084.84;5117538;28;20028;-68
2020/12/03 08:05:49;;;;;;;40.65;22.45;;;;;;;0.60;72.72;100084.16;5117105;28;20024;-67
2020/12/03 08:08:24;;;;;;;42.22;21.67;;;;;;;0.62;72.56;100095.69;5117742;28;20047;-68
2020/12/03 08:10:51;;;;;;;43.67;23.75;;;;;;;0.62;72.91;100101.22;5118007;28;20108;-68
2020/12/03 08:13:20;;;;;;;43.08;24.20;;;;;;;0.66;72.76;100081.97;5099470;28;20457;-69
2020/12/03 08:15:54;;;;;;;46.30;22.75;;;;;;;0.76;72.07;100098.91;5117156;28;20035;-70
2020/12/03 08:18:38;;;;;;;40.80;21.52;;;;;;;0.80;72.49;100096.25;5117753;28;20024;-67
2020/12/03 08:21:04;;;;;;;39.67;22.13;;;;;;;0.83;72.14;100107.47;5116932;28;20042;-68
2020/12/03 08:23:29;;;;;;;47.47;22.75;;;;;;;0.89;72.81;100116.34;5099421;28;20337;-68
2020/12/03 08:25:54;;;;;;;37.10;20.95;;;;;;;0.98;74.79;100114.28;5117095;27;20020;-70
2020/12/03 08:28:25;;;;;;;46.28;22.23;;;;;;;1.09;72.52;100118.19;5099058;28;20326;-66
2020/12/03 08:30:51;;;;;;;44.40;23.83;;;;;;;1.20;72.14;100113.00;5117191;27;20085;-67
2020/12/03 08:33:34;;;;;;;45.50;23.48;;;;;;;1.24;72.04;100130.53;5117510;28;20027;-68
2020/12/03 08:36:01;;;;;;;40.20;21.15;;;;;;;1.24;71.86;100141.63;5099141;28;20398;-71
2020/12/03 08:38:36;;;;;;;39.53;22.17;;;;;;;1.23;71.94;100128.94;5098193;28;20020;-67
2020/12/03 08:41:05;;;;;;;42.70;23.48;;;;;;;1.22;72.55;100132.84;5117304;28;20022;-67
2020/12/03 08:43:33;;;;;;;44.28;23.00;;;;;;;1.26;72.13;100122.69;5117095;28;20065;-67
2020/12/03 08:46:06;;;;;;;42.50;23.27;;;;;;;1.31;72.03;100136.31;5117173;28;20030;-67
2020/12/03 08:48:36;;;;;;;47.75;25.67;;;;;;;1.34;72.16;100129.25;5116907;28;20513;-69
2020/12/03 08:51:05;;;;;;;44.83;21.85;;;;;;;1.39;72.38;100127.09;5117245;28;20103;-68
2020/12/03 08:53:32;;;;;;;50.33;25.30;;;;;;;1.47;71.97;100134.47;5098630;28;20020;-69
2020/12/03 08:56:16;;;;;;;47.90;25.85;;;;;;;1.50;72.08;100133.75;5117048;28;20110;-68
2020/12/03 08:59:03;;;;;;;48.35;24.38;;;;;;;1.58;71.18;100133.97;5099004;28;20019;-68
2020/12/03 09:01:36;;;;;;;52.17;25.88;;;;;;;1.57;71.43;100127.63;5116831;28;20023;-68
2020/12/03 09:04:02;;;;;;;47.13;23.83;;;;;;;1.61;71.27;100119.41;5114968;28;20425;-68
2020/12/03 09:06:30;;;;;;;55.38;27.75;;;;;;;1.61;71.54;100128.53;5098047;28;20027;-68
2020/12/03 09:08:56;;;;;;;54.28;25.35;;;;;;;1.65;70.94;100123.13;5115946;28;20065;-68
2020/12/03 09:11:24;;;;;;;61.80;26.48;;;;;;;1.64;71.31;100115.94;5098215;28;20016;-67
2020/12/03 09:13:57;;;;;;;42.65;21.73;;;;;;;1.68;70.77;100119.66;5115974;28;20054;-66
2020/12/03 09:16:26;;;;;;;51.58;25.58;;;;;;;1.69;70.83;100127.63;5116292;28;20020;-68
2020/12/03 09:18:51;;;;;;;42.15;21.83;;;;;;;1.72;71.16;100134.44;5115357;28;20019;-66
2020/12/03 09:21:30;;;;;;;40.58;21.60;;;;;;;1.75;71.32;100111.56;5115871;28;20023;-67
2020/12/03 09:23:57;;;;;;;42.78;24.00;;;;;;;1.81;71.72;100115.69;5115739;28;20026;-68
2020/12/03 09:26:32;;;;;;;56.17;30.23;;;;;;;1.84;71.76;100104.72;5115731;28;20410;-67
2020/12/03 09:28:59;;;;;;;40.35;21.90;;;;;;;1.89;71.63;100092.56;5115793;28;20209;-68
2020/12/03 09:31:26;;;;;;;43.92;21.38;;;;;;;1.92;71.65;100091.88;5116353;28;20078;-67
2020/12/03 09:33:53;;;;;;;41.63;20.92;;;;;;;1.95;71.49;100082.84;5116125;28;20019;-68
2020/12/03 09:36:19;;;;;;;38.67;20.77;;;;;;;1.99;71.24;100083.75;5115761;28;20025;-70
2020/12/03 09:38:48;;;;;;;38.83;21.83;;;;;;;2.02;71.50;100087.78;5115884;27;20288;-68
2020/12/03 09:41:19;;;;;;;40.60;21.98;;;;;;;2.03;72.09;100075.53;5115421;28;20145;-72
2020/12/03 09:43:47;;;;;;;39.65;21.90;;;;;;;2.08;72.26;100075.28;5115503;28;20020;-71
2020/12/03 09:46:16;;;;;;;32.47;19.60;;;;;;;2.12;71.09;100065.09;5098200;28;20023;-66
2020/12/03 09:48:44;;;;;;;39.65;21.40;;;;;;;2.15;71.74;100059.66;5113915;28;20158;-68
2020/12/03 09:51:10;;;;;;;37.60;20.30;;;;;;;2.15;71.99;100056.88;5115076;28;20032;-68
2020/12/03 09:53:36;;;;;;;31.35;18.08;;;;;;;2.16;71.34;100050.16;5115307;28;20049;-68
2020/12/03 09:56:02;;;;;;;33.42;19.45;;;;;;;2.20;71.33;100041.97;5115675;28;20078;-69
2020/12/03 09:58:28;;;;;;;33.42;19.88;;;;;;;2.21;71.39;100035.25;5114926;28;20103;-68
2020/12/03 10:00:56;;;;;;;37.55;20.40;;;;;;;2.25;71.83;100043.69;5115322;28;20130;-68
2020/12/03 10:03:34;;;;;;;41.33;21.25;;;;;;;2.27;71.51;100038.56;5115011;28;20031;-67
2020/12/03 10:06:21;;;;;;;37.63;20.48;;;;;;;2.29;71.32;100039.03;5113704;28;20051;-68
2020/12/03 10:09:12;;;;;;;42.33;22.60;;;;;;;2.28;71.86;100051.28;5096894;28;20534;-68
2020/12/03 10:12:07;;;;;;;48.03;24.40;;;;;;;2.28;71.82;100037.41;5114727;28;20391;-68
2020/12/03 10:14:38;;;;;;;41.72;20.73;;;;;;;2.30;71.69;100043.41;5114733;28;20050;-68
2020/12/03 10:17:06;;;;;;;38.10;21.00;;;;;;;2.30;71.62;100033.13;5115018;28;20388;-67
2020/12/03 10:19:37;;;;;;;36.25;19.80;;;;;;;2.30;72.13;100024.00;5096954;28;20020;-68
2020/12/03 10:22:05;;;;;;;47.40;25.33;;;;;;;2.32;72.31;100021.66;5114999;28;20098;-68
2020/12/03 10:24:46;;;;;;;42.35;22.65;;;;;;;2.31;73.07;100023.63;5096508;28;20051;-68
2020/12/03 10:27:26;;;;;;;41.22;22.45;;;;;;;2.30;72.84;100019.25;5114505;28;20098;-68
2020/12/03 10:30:00;;;;;;;45.95;23.85;;;;;;;2.30;73.40;100010.94;5114010;28;20030;-68
2020/12/03 10:32:26;;;;;;;35.13;19.38;;;;;;;2.30;73.85;100012.91;5114789;28;20399;-68
2020/12/03 10:34:52;;;;;;;33.67;18.85;;;;;;;2.30;74.58;100005.38;5096501;28;20345;-69
2020/12/03 10:37:28;;;;;;;34.35;19.83;;;;;;;2.28;74.68;99995.81;5114517;28;20027;-68
2020/12/03 10:40:09;;;;;;;43.45;21.02;;;;;;;2.26;74.99;99992.59;5096330;28;20023;-68
2020/12/03 10:42:43;;;;;;;37.47;20.33;;;;;;;2.24;75.32;99983.84;5114855;28;20020;-68
2020/12/03 10:45:17;;;;;;;37.05;20.73;;;;;;;2.22;75.67;99986.97;5114472;28;20552;-70
2020/12/03 10:47:51;;;;;;;40.65;21.42;;;;;;;2.25;76.14;99979.91;5114855;28;20029;-64
2020/12/03 10:50:19;;;;;;;44.70;22.75;;;;;;;2.27;76.46;99978.38;5114433;28;20035;-65
2020/12/03 10:52:45;;;;;;;39.45;22.98;;;;;;;2.29;77.00;99973.28;5096532;28;20035;-66
2020/12/03 10:55:19;;;;;;;38.08;23.17;;;;;;;2.30;77.43;99971.31;5114278;28;20026;-64
2020/12/03 10:58:00;;;;;;;36.63;20.75;;;;;;;2.32;77.40;99974.53;5114740;28;20136;-66
2020/12/03 11:00:27;;;;;;;41.45;21.50;;;;;;;2.35;77.51;99968.25;5096380;28;20015;-64
2020/12/03 11:02:56;;;;;;;41.97;22.02;;;;;;;2.35;77.33;99962.72;5114447;28;20032;-65
2020/12/03 11:05:22;;;;;;;46.05;23.52;;;;;;;2.38;77.95;99970.31;5114814;28;20027;-65
2020/12/03 11:07:55;;;;;;;39.15;21.90;;;;;;;2.37;77.70;99961.19;5112667;28;20308;-65
2020/12/03 11:10:21;;;;;;;41.65;23.13;;;;;;;2.39;77.71;99958.06;5093518;28;20058;-64
2020/12/03 11:12:50;;;;;;;42.97;22.02;;;;;;;2.41;78.07;99952.94;5114879;28;20019;-65
2020/12/03 11:15:19;;;;;;;38.08;20.67;;;;;;;2.42;78.26;99958.13;5114117;28;20024;-66
2020/12/03 11:18:00;;;;;;;38.05;22.35;;;;;;;2.45;78.37;99957.41;5115131;28;20022;-65
2020/12/03 11:20:29;;;;;;;42.40;22.40;;;;;;;2.43;77.78;99945.06;5114830;28;20011;-65
2020/12/03 11:23:04;;;;;;;39.75;22.23;;;;;;;2.45;78.56;99946.31;5114511;28;20031;-65
2020/12/03 11:25:30;;;;;;;44.92;23.02;;;;;;;2.49;78.74;99940.88;5115882;28;20020;-65
2020/12/03 11:28:00;;;;;;;51.17;24.38;;;;;;;2.47;78.12;99932.94;5114665;28;20020;-68
2020/12/03 11:30:27;;;;;;;45.42;25.33;;;;;;;2.51;78.50;99933.00;5114684;28;20020;-67
2020/12/03 11:32:57;;;;;;;56.15;34.72;;;;;;;2.54;78.13;99931.47;5114276;28;20042;-68
2020/12/03 11:35:23;;;;;;;57.42;34.75;;;;;;;2.57;77.89;99937.09;5112062;28;20307;-68